Time;durP1;ratioP1;P1;durP2;ratioP2;P2;SDS_P1;SDS_P2;PMS_P1;PMS_P2;Temp;Humidity;BMP_temperature;BMP_pressure;BME280_temperature;BME280_humidity;BME280_pressure;Samples;Min_cycle;Max_cycle;Signal;HPM_P1;HPM_P2
2021/09/27 00:00:57;;;;;;;9.95;5.00;;;16.90;99.90;;;;;;5029714;28;20033;-62
2021/09/27 00:03:24;;;;;;;13.45;5.05;;;16.90;99.90;;;;;;5029232;28;20030;-62
2021/09/27 00:05:50;;;;;;;8.63;5.05;;;16.80;99.90;;;;;;5029847;28;20025;-61
2021/09/27 00:08:16;;;;;;;12.02;5.30;;;16.80;99.90;;;;;;5029101;28;20053;-62
2021/09/27 00:10:49;;;;;;;6.68;4.20;;;16.80;99.90;;;;;;5029651;28;20029;-62
2021/09/27 00:13:16;;;;;;;10.40;4.90;;;16.80;99.90;;;;;;5029318;28;20212;-62
2021/09/27 00:15:45;;;;;;;9.25;4.45;;;16.80;99.90;;;;;;5029326;28;20128;-62
2021/09/27 00:18:13;;;;;;;8.00;4.50;;;16.70;99.90;;;;;;5029005;28;20036;-62
2021/09/27 00:20:41;;;;;;;10.02;4.90;;;16.70;99.90;;;;;;5029557;28;20124;-62
2021/09/27 00:23:07;;;;;;;9.85;4.78;;;16.70;99.90;;;;;;5029539;28;20045;-62
2021/09/27 00:25:33;;;;;;;11.20;5.28;;;16.70;99.90;;;;;;5029108;28;20030;-61
2021/09/27 00:27:59;;;;;;;9.27;4.45;;;16.60;99.90;;;;;;5028766;28;20083;-61
2021/09/27 00:30:24;;;;;;;10.07;4.93;;;16.70;99.90;;;;;;5026913;28;20887;-62
2021/09/27 00:32:51;;;;;;;12.15;4.63;;;16.60;99.90;;;;;;5029010;28;20133;-62
2021/09/27 00:35:21;;;;;;;15.25;4.75;;;16.50;99.90;;;;;;5028850;28;20029;-62
2021/09/27 00:37:47;;;;;;;9.50;4.90;;;16.60;99.90;;;;;;5028308;28;20119;-62
2021/09/27 00:40:17;;;;;;;7.70;5.10;;;16.60;99.90;;;;;;5028763;28;20446;-61
2021/09/27 00:42:43;;;;;;;8.50;4.72;;;16.50;99.90;;;;;;5027353;28;20041;-61
2021/09/27 00:45:10;;;;;;;10.95;5.10;;;16.50;99.90;;;;;;5029069;28;20045;-62
2021/09/27 00:47:36;;;;;;;10.52;4.22;;;16.50;99.90;;;;;;5028745;28;20133;-62
2021/09/27 00:50:03;;;;;;;10.52;5.35;;;16.40;99.90;;;;;;5027432;28;20416;-61
2021/09/27 00:52:28;;;;;;;9.30;4.95;;;16.40;99.90;;;;;;5028550;28;20064;-63
2021/09/27 00:54:54;;;;;;;11.25;5.55;;;16.40;99.90;;;;;;5028965;28;20451;-61
2021/09/27 00:57:24;;;;;;;16.63;5.55;;;16.40;99.90;;;;;;5028915;28;20120;-61
2021/09/27 00:59:53;;;;;;;8.55;4.43;;;16.40;99.90;;;;;;5028329;28;20067;-64
2021/09/27 01:02:19;;;;;;;11.02;4.82;;;16.40;99.90;;;;;;5028675;28;20055;-61
2021/09/27 01:04:45;;;;;;;9.68;4.50;;;16.30;99.90;;;;;;5028581;28;20029;-62
2021/09/27 01:07:16;;;;;;;8.68;4.72;;;16.30;99.90;;;;;;5028833;28;20103;-62
2021/09/27 01:10:00;;;;;;;10.93;4.97;;;16.30;99.90;;;;;;5028243;28;20064;-62
2021/09/27 01:12:53;;;;;;;11.80;4.93;;;16.20;99.90;;;;;;5028730;28;20894;-63
2021/09/27 01:15:44;;;;;;;9.15;4.80;;;16.20;99.90;;;;;;5027533;28;20041;-62
2021/09/27 01:18:28;;;;;;;11.80;5.28;;;16.20;99.90;;;;;;5025818;28;20033;-62
2021/09/27 01:20:57;;;;;;;9.45;5.30;;;16.20;99.90;;;;;;5027119;28;20037;-62
2021/09/27 01:23:44;;;;;;;10.75;5.15;;;16.20;99.90;;;;;;5028249;28;20502;-62
2021/09/27 01:26:38;;;;;;;11.50;5.47;;;16.20;99.90;;;;;;5025990;28;20030;-63
2021/09/27 01:29:49;;;;;;;9.45;5.05;;;16.20;99.90;;;;;;5024869;28;20045;-62
2021/09/27 01:32:38;;;;;;;10.40;5.43;;;16.20;99.90;;;;;;5024149;28;20117;-62
2021/09/27 01:35:31;;;;;;;11.30;5.47;;;16.20;99.90;;;;;;5024816;28;20042;-62
2021/09/27 01:38:15;;;;;;;13.68;5.07;;;16.10;99.90;;;;;;5024229;28;20080;-62
2021/09/27 01:41:03;;;;;;;14.98;5.93;;;16.10;99.90;;;;;;5026237;28;20065;-61
2021/09/27 01:43:52;;;;;;;9.75;5.65;;;16.10;99.90;;;;;;5024593;28;20064;-62
2021/09/27 01:46:47;;;;;;;13.23;5.68;;;16.00;99.90;;;;;;5027160;28;20500;-63
2021/09/27 01:49:25;;;;;;;11.63;5.78;;;16.00;99.90;;;;;;5026819;28;20041;-62
2021/09/27 01:52:20;;;;;;;13.73;6.40;;;16.00;99.90;;;;;;5031611;28;20119;-61
2021/09/27 01:54:50;;;;;;;12.18;5.80;;;16.00;99.90;;;;;;5030832;28;20072;-62
2021/09/27 01:57:21;;;;;;;14.50;5.90;;;16.00;99.90;;;;;;5032009;28;20029;-61
2021/09/27 02:00:16;;;;;;;12.50;6.03;;;16.00;99.90;;;;;;5031198;28;20037;-63
2021/09/27 02:03:04;;;;;;;11.93;5.88;;;16.00;99.90;;;;;;5029892;28;20072;-62
2021/09/27 02:06:13;;;;;;;11.85;5.50;;;15.90;99.90;;;;;;5028379;28;20040;-63
2021/09/27 02:09:03;;;;;;;13.40;5.70;;;15.90;99.90;;;;;;5028127;28;20394;-62
2021/09/27 02:11:30;;;;;;;15.23;6.18;;;15.90;99.90;;;;;;5027184;28;20037;-62
2021/09/27 02:14:00;;;;;;;11.88;5.80;;;15.90;99.90;;;;;;5031514;28;20033;-62
2021/09/27 02:16:44;;;;;;;10.20;5.40;;;15.90;99.90;;;;;;5028110;28;20409;-61
2021/09/27 02:19:32;;;;;;;11.68;5.40;;;15.90;99.90;;;;;;5029451;28;20044;-61
2021/09/27 02:22:21;;;;;;;11.85;5.78;;;15.90;99.90;;;;;;5026349;28;20560;-62
2021/09/27 02:25:08;;;;;;;12.65;5.70;;;15.90;99.90;;;;;;5030906;28;20030;-64
2021/09/27 02:27:34;;;;;;;13.45;5.70;;;15.90;99.90;;;;;;5029090;28;20074;-62
2021/09/27 02:30:00;;;;;;;11.40;5.80;;;15.80;99.90;;;;;;5030761;28;20030;-61
2021/09/27 02:32:36;;;;;;;12.55;6.32;;;15.90;99.90;;;;;;5029440;28;20550;-62
2021/09/27 02:35:05;;;;;;;14.13;5.43;;;15.90;99.90;;;;;;5025076;28;20053;-62
2021/09/27 02:37:43;;;;;;;12.40;6.40;;;15.80;99.90;;;;;;5030529;28;20523;-61
2021/09/27 02:40:23;;;;;;;15.23;5.97;;;15.80;99.90;;;;;;5025301;28;20064;-62
2021/09/27 02:43:00;;;;;;;12.20;5.93;;;15.80;99.90;;;;;;5032083;28;20112;-61
2021/09/27 02:45:28;;;;;;;14.20;6.03;;;15.80;99.90;;;;;;5027725;28;20029;-61
2021/09/27 02:48:31;;;;;;;10.63;6.10;;;15.70;99.90;;;;;;5027088;28;20095;-61
2021/09/27 02:50:57;;;;;;;14.70;6.60;;;15.70;99.90;;;;;;5030804;28;20040;-62
2021/09/27 02:53:23;;;;;;;12.82;6.05;;;15.70;99.90;;;;;;5030921;28;20037;-62
2021/09/27 02:56:41;;;;;;;14.77;6.10;;;15.70;99.90;;;;;;5030522;28;20029;-62
2021/09/27 02:59:19;;;;;;;12.13;6.75;;;15.70;99.90;;;;;;5014786;28;20041;-62
2021/09/27 03:02:06;;;;;;;15.68;7.05;;;15.70;99.90;;;;;;5028405;28;20378;-63
2021/09/27 03:05:07;;;;;;;11.30;6.28;;;15.70;99.90;;;;;;5028065;28;20037;-63
2021/09/27 03:07:48;;;;;;;13.85;7.15;;;15.70;99.90;;;;;;5028036;28;20040;-62
2021/09/27 03:10:43;;;;;;;13.00;6.43;;;15.80;99.90;;;;;;5029848;28;20041;-62
2021/09/27 03:13:29;;;;;;;16.95;6.93;;;15.80;99.90;;;;;;5028864;28;20057;-62
2021/09/27 03:16:07;;;;;;;15.85;6.82;;;15.90;99.90;;;;;;5026711;28;20041;-62
2021/09/27 03:19:03;;;;;;;16.73;6.68;;;15.90;99.90;;;;;;5029730;28;20538;-63
2021/09/27 03:21:47;;;;;;;15.27;7.30;;;15.90;99.90;;;;;;5027349;28;20041;-61
2021/09/27 03:24:23;;;;;;;14.23;6.88;;;16.00;99.90;;;;;;5030061;28;20033;-61
2021/09/27 03:26:51;;;;;;;14.18;6.57;;;16.00;99.90;;;;;;5028733;28;20132;-62
2021/09/27 03:29:42;;;;;;;16.30;7.03;;;16.00;99.90;;;;;;5029761;28;20029;-61
2021/09/27 03:32:19;;;;;;;12.50;6.57;;;16.00;99.90;;;;;;5028105;28;20366;-61
2021/09/27 03:34:59;;;;;;;15.55;6.53;;;16.00;99.90;;;;;;5030295;28;20048;-62
2021/09/27 03:37:45;;;;;;;13.77;7.00;;;16.00;99.90;;;;;;5026752;28;20026;-62
2021/09/27 03:41:01;;;;;;;15.98;7.45;;;16.00;99.90;;;;;;5028757;28;20573;-61
2021/09/27 03:43:58;;;;;;;13.98;6.68;;;16.10;99.90;;;;;;5021411;28;20585;-63
2021/09/27 03:46:56;;;;;;;13.88;6.68;;;16.00;99.90;;;;;;5027778;28;20024;-61
2021/09/27 03:49:28;;;;;;;16.48;6.93;;;16.00;99.90;;;;;;5017838;28;20041;-61
2021/09/27 03:52:06;;;;;;;17.13;6.70;;;16.00;99.90;;;;;;5027349;28;20110;-62
2021/09/27 03:54:39;;;;;;;18.02;6.93;;;15.90;99.90;;;;;;5028987;28;20083;-62
2021/09/27 03:57:15;;;;;;;19.42;7.53;;;15.90;99.90;;;;;;5029769;28;20045;-61
2021/09/27 04:00:17;;;;;;;16.55;7.47;;;15.90;99.90;;;;;;5029374;28;20034;-62
2021/09/27 04:02:57;;;;;;;15.50;7.45;;;15.90;99.90;;;;;;5015144;28;20538;-62
2021/09/27 04:05:27;;;;;;;19.60;7.72;;;15.80;99.90;;;;;;5020696;28;20116;-61
2021/09/27 04:08:29;;;;;;;20.80;8.38;;;15.80;99.90;;;;;;5035590;28;20091;-62
2021/09/27 04:11:22;;;;;;;18.42;8.98;;;15.70;99.90;;;;;;5032803;28;20723;-61
2021/09/27 04:13:50;;;;;;;15.80;8.02;;;15.70;99.90;;;;;;5033064;28;20061;-62
2021/09/27 04:16:48;;;;;;;19.98;8.85;;;15.70;99.90;;;;;;5029252;28;20284;-62
2021/09/27 04:19:26;;;;;;;16.48;8.25;;;15.60;99.90;;;;;;5028458;28;20493;-62
2021/09/27 04:22:24;;;;;;;15.57;7.82;;;15.60;99.90;;;;;;5025073;28;20485;-61
2021/09/27 04:25:17;;;;;;;18.02;8.32;;;15.60;99.90;;;;;;5025146;28;20372;-61
2021/09/27 04:27:51;;;;;;;16.95;8.55;;;15.60;99.90;;;;;;5026978;28;20087;-62
2021/09/27 04:30:43;;;;;;;17.30;8.60;;;15.60;99.90;;;;;;5023999;28;20045;-62
2021/09/27 04:33:36;;;;;;;16.80;8.35;;;15.60;99.90;;;;;;5032091;28;20041;-61
2021/09/27 04:36:17;;;;;;;19.45;8.40;;;15.60;99.90;;;;;;5034044;28;20061;-62
2021/09/27 04:38:45;;;;;;;18.83;8.18;;;15.60;99.90;;;;;;5036435;28;20093;-61
2021/09/27 04:41:34;;;;;;;20.58;8.45;;;15.50;99.90;;;;;;5030951;28;20489;-61
2021/09/27 04:44:19;;;;;;;16.52;8.02;;;15.50;99.90;;;;;;5031234;28;20030;-62
2021/09/27 04:46:51;;;;;;;17.30;8.10;;;15.50;99.90;;;;;;5034017;28;20041;-62
2021/09/27 04:49:23;;;;;;;20.23;8.48;;;15.50;99.90;;;;;;5025445;28;20025;-61
2021/09/27 04:52:04;;;;;;;16.77;8.90;;;15.50;99.90;;;;;;5033478;28;20036;-63
2021/09/27 04:54:42;;;;;;;15.68;8.60;;;15.50;99.90;;;;;;5024809;28;20091;-62
2021/09/27 04:57:26;;;;;;;18.02;8.65;;;15.40;99.90;;;;;;5022627;28;20037;-62
2021/09/27 05:00:21;;;;;;;17.52;8.93;;;15.40;99.90;;;;;;5027291;28;20382;-62
2021/09/27 05:03:12;;;;;;;21.30;8.73;;;15.40;99.90;;;;;;5023628;28;20041;-62
2021/09/27 05:05:52;;;;;;;;;;;15.40;99.90;;;;;;5024856;28;20494;-62
2021/09/27 05:08:18;;;;;;;;;;;15.40;99.90;;;;;;5024648;28;20297;-63
2021/09/27 05:11:14;;;;;;;21.23;8.23;;;15.40;99.90;;;;;;5023102;28;19913;-62
2021/09/27 05:13:55;;;;;;;22.00;9.63;;;15.40;99.90;;;;;;5022799;28;20060;-61
2021/09/27 05:16:48;;;;;;;21.65;8.57;;;15.40;99.90;;;;;;5024808;28;20091;-63
2021/09/27 05:19:51;;;;;;;24.20;9.43;;;15.40;99.90;;;;;;5020549;28;20060;-62
2021/09/27 05:22:54;;;;;;;21.63;9.68;;;15.40;99.90;;;;;;5021988;28;20057;-62
2021/09/27 05:25:48;;;;;;;19.27;8.93;;;15.40;99.90;;;;;;5024871;28;20045;-62
2021/09/27 05:28:17;;;;;;;18.40;8.65;;;15.40;99.90;;;;;;5029733;28;20052;-61
2021/09/27 05:30:59;;;;;;;21.17;9.15;;;15.40;99.90;;;;;;5025744;28;20042;-61
2021/09/27 05:33:37;;;;;;;19.45;9.52;;;15.40;99.90;;;;;;5028197;28;20240;-61
2021/09/27 05:36:15;;;;;;;21.95;8.63;;;15.40;99.90;;;;;;5027391;28;20091;-63
2021/09/27 05:38:58;;;;;;;19.55;8.13;;;15.50;99.90;;;;;;5028669;28;20084;-62
2021/09/27 05:41:42;;;;;;;17.52;9.20;;;15.50;99.90;;;;;;5029792;28;20035;-62
2021/09/27 05:44:39;;;;;;;18.58;8.30;;;15.50;99.90;;;;;;5028459;28;20045;-62
2021/09/27 05:47:31;;;;;;;21.05;8.45;;;15.50;99.90;;;;;;5030118;28;20206;-62
2021/09/27 05:50:08;;;;;;;19.95;8.15;;;15.50;99.90;;;;;;5027174;28;20037;-61
2021/09/27 05:53:06;;;;;;;18.75;7.90;;;15.50;99.90;;;;;;5029932;28;20436;-61
2021/09/27 05:55:35;;;;;;;23.80;8.88;;;15.50;99.90;;;;;;5027876;28;20030;-61
2021/09/27 05:58:19;;;;;;;20.02;7.75;;;15.50;99.90;;;;;;5030804;28;20036;-62
2021/09/27 06:00:48;;;;;;;20.17;8.52;;;15.50;99.90;;;;;;5026112;28;20195;-62
2021/09/27 06:03:45;;;;;;;15.82;7.93;;;15.50;99.90;;;;;;5028677;28;20033;-63
2021/09/27 06:06:41;;;;;;;14.75;7.00;;;15.50;99.90;;;;;;5025973;28;20045;-61
2021/09/27 06:09:28;;;;;;;17.83;7.78;;;15.60;99.90;;;;;;5026468;28;20436;-62
2021/09/27 06:11:53;;;;;;;15.57;7.35;;;15.60;99.90;;;;;;5028353;28;20129;-62
2021/09/27 06:14:19;;;;;;;13.40;7.85;;;15.70;99.90;;;;;;5028887;28;20152;-62
2021/09/27 06:17:18;;;;;;;22.35;7.80;;;15.70;99.90;;;;;;5028023;28;20531;-61
2021/09/27 06:20:11;;;;;;;19.00;8.43;;;15.70;99.90;;;;;;5026917;28;20048;-61
2021/09/27 06:23:09;;;;;;;18.33;7.38;;;15.80;99.90;;;;;;5029425;28;20108;-61
2021/09/27 06:25:42;;;;;;;14.75;6.90;;;15.90;99.90;;;;;;5026892;28;20063;-61
2021/09/27 06:28:17;;;;;;;15.38;6.97;;;16.00;99.90;;;;;;5029403;28;20492;-61
2021/09/27 06:31:07;;;;;;;13.38;6.57;;;16.00;99.90;;;;;;5025852;28;20030;-61
2021/09/27 06:34:01;;;;;;;20.17;6.35;;;16.10;99.90;;;;;;5025727;28;20502;-61
2021/09/27 06:36:31;;;;;;;15.10;6.43;;;16.20;99.90;;;;;;5026445;28;20576;-61
2021/09/27 06:38:59;;;;;;;13.00;6.37;;;16.20;99.90;;;;;;5027554;28;20047;-61
2021/09/27 06:41:27;;;;;;;9.63;5.70;;;16.30;99.90;;;;;;5026399;28;20037;-62
2021/09/27 06:43:53;;;;;;;14.25;6.82;;;16.30;99.90;;;;;;5028231;28;20485;-61
2021/09/27 06:46:20;;;;;;;12.13;6.43;;;16.40;99.90;;;;;;5027628;28;20072;-62
2021/09/27 06:48:46;;;;;;;12.95;5.82;;;16.50;99.90;;;;;;5027577;28;20037;-61
2021/09/27 06:51:12;;;;;;;11.88;6.40;;;16.60;99.90;;;;;;5026753;28;20052;-62
2021/09/27 06:53:38;;;;;;;11.48;6.00;;;16.70;99.90;;;;;;5027370;28;20033;-62
2021/09/27 06:56:06;;;;;;;11.82;5.97;;;16.70;99.90;;;;;;5028826;28;20496;-62
2021/09/27 06:58:32;;;;;;;11.07;5.15;;;16.80;99.90;;;;;;5026947;28;20037;-62
2021/09/27 07:00:58;;;;;;;10.85;5.43;;;16.80;99.90;;;;;;5027567;28;20387;-62
2021/09/27 07:03:24;;;;;;;14.40;5.55;;;16.80;99.90;;;;;;5028318;28;20053;-62
2021/09/27 07:05:50;;;;;;;10.90;5.45;;;16.90;99.90;;;;;;5027456;28;20064;-61
2021/09/27 07:08:20;;;;;;;10.80;5.25;;;16.90;99.90;;;;;;5027971;28;20094;-61
2021/09/27 07:10:47;;;;;;;12.80;5.72;;;16.90;99.90;;;;;;5027467;28;20480;-62
2021/09/27 07:13:14;;;;;;;9.90;5.10;;;17.00;99.90;;;;;;5026053;28;20120;-61
2021/09/27 07:15:41;;;;;;;13.50;6.22;;;17.00;99.90;;;;;;5026895;28;20057;-62
2021/09/27 07:18:06;;;;;;;12.90;5.25;;;17.00;99.90;;;;;;5025156;28;20243;-61
2021/09/27 07:20:32;;;;;;;12.98;6.05;;;17.00;99.90;;;;;;5026451;28;20489;-61
2021/09/27 07:22:58;;;;;;;13.02;5.78;;;17.00;99.90;;;;;;5026467;28;20041;-62
2021/09/27 07:25:26;;;;;;;8.48;4.85;;;17.10;99.90;;;;;;5027503;28;20033;-62
2021/09/27 07:27:52;;;;;;;14.13;5.90;;;17.00;99.90;;;;;;5029070;28;20532;-62
2021/09/27 07:30:19;;;;;;;11.93;5.93;;;17.10;99.90;;;;;;5027493;28;20029;-61
2021/09/27 07:32:46;;;;;;;13.32;5.65;;;17.20;99.90;;;;;;5026474;28;20083;-62
2021/09/27 07:35:15;;;;;;;10.63;5.55;;;17.20;99.90;;;;;;5027111;28;20029;-62
2021/09/27 07:37:41;;;;;;;9.15;4.93;;;17.30;99.90;;;;;;5026918;28;20056;-62
2021/09/27 07:40:10;;;;;;;9.68;5.40;;;17.40;99.90;;;;;;5026521;28;20447;-61
2021/09/27 07:42:35;;;;;;;11.77;5.72;;;17.40;99.90;;;;;;5029057;28;20048;-63
2021/09/27 07:45:02;;;;;;;9.80;5.60;;;17.50;99.90;;;;;;5028880;28;20439;-62
2021/09/27 07:47:27;;;;;;;13.15;5.40;;;17.50;99.90;;;;;;5027172;28;20095;-61
2021/09/27 07:49:53;;;;;;;16.25;5.90;;;17.50;99.90;;;;;;5025979;28;20030;-62
2021/09/27 07:52:19;;;;;;;10.68;5.10;;;17.60;99.90;;;;;;5028809;28;20389;-61
2021/09/27 07:54:44;;;;;;;9.00;4.90;;;17.60;99.90;;;;;;5026264;28;20110;-62
2021/09/27 07:57:10;;;;;;;14.15;6.07;;;17.60;99.90;;;;;;5029317;28;20045;-61
2021/09/27 07:59:36;;;;;;;10.90;5.85;;;17.60;99.90;;;;;;5026761;28;20048;-62
2021/09/27 08:02:02;;;;;;;9.20;4.93;;;17.60;99.90;;;;;;5031210;28;20125;-61
2021/09/27 08:04:27;;;;;;;17.45;6.35;;;17.70;99.90;;;;;;5026552;28;20433;-61
2021/09/27 08:06:53;;;;;;;14.95;5.95;;;17.80;99.90;;;;;;5026003;28;20378;-62
2021/09/27 08:09:18;;;;;;;9.45;5.50;;;17.80;99.90;;;;;;5025055;28;20041;-62
2021/09/27 08:11:44;;;;;;;11.20;5.32;;;17.70;99.90;;;;;;5028144;28;20389;-61
2021/09/27 08:14:11;;;;;;;11.95;5.70;;;17.80;99.90;;;;;;5026063;28;20153;-62
2021/09/27 08:16:37;;;;;;;11.60;6.15;;;17.80;99.90;;;;;;5025532;28;20033;-61
2021/09/27 08:19:04;;;;;;;15.25;5.50;;;18.00;99.90;;;;;;5024367;28;20228;-61
2021/09/27 08:21:30;;;;;;;11.65;5.63;;;18.10;99.90;;;;;;5027808;28;20037;-61
2021/09/27 08:23:55;;;;;;;10.60;4.72;;;18.10;99.90;;;;;;5025767;28;20366;-61
2021/09/27 08:26:21;;;;;;;10.40;5.40;;;18.20;99.90;;;;;;5025374;28;20033;-61
2021/09/27 08:28:47;;;;;;;10.95;5.45;;;18.20;99.90;;;;;;5023703;28;20030;-62
2021/09/27 08:31:17;;;;;;;11.43;5.10;;;18.30;99.90;;;;;;5025713;28;20038;-62
2021/09/27 08:33:43;;;;;;;8.70;4.63;;;18.20;99.90;;;;;;5024149;28;20798;-61
2021/09/27 08:36:13;;;;;;;8.50;4.70;;;18.20;99.90;;;;;;5025729;28;20029;-61
2021/09/27 08:38:39;;;;;;;7.05;4.60;;;18.30;99.90;;;;;;5025586;28;20806;-62
2021/09/27 08:41:19;;;;;;;9.30;5.18;;;18.30;99.90;;;;;;5025811;28;20033;-61
2021/09/27 08:44:21;;;;;;;11.55;4.55;;;18.40;99.90;;;;;;5023941;28;20041;-65
2021/09/27 08:47:01;;;;;;;10.20;4.65;;;18.30;99.90;;;;;;5024912;28;20507;-61
2021/09/27 08:49:54;;;;;;;9.82;4.90;;;18.30;99.90;;;;;;5023827;28;20037;-60
2021/09/27 08:52:22;;;;;;;8.32;4.47;;;18.30;99.90;;;;;;5027822;28;20057;-62
2021/09/27 08:54:51;;;;;;;8.00;4.05;;;18.30;99.90;;;;;;5025163;28;20044;-62
2021/09/27 08:57:44;;;;;;;8.45;4.50;;;18.40;99.90;;;;;;5026613;28;20029;-63
2021/09/27 09:00:18;;;;;;;9.20;4.72;;;18.60;99.90;;;;;;5022263;28;20397;-62
2021/09/27 09:03:03;;;;;;;7.82;3.60;;;18.60;99.90;;;;;;5029013;28;20420;-66
2021/09/27 09:05:42;;;;;;;6.97;3.47;;;18.80;99.90;;;;;;5025862;28;20565;-61
2021/09/27 09:08:37;;;;;;;7.13;4.50;;;18.90;99.90;;;;;;5023532;28;20087;-61
2021/09/27 09:11:26;;;;;;;8.57;4.30;;;19.10;99.90;;;;;;5016743;28;20469;-62
2021/09/27 09:14:02;;;;;;;7.78;4.82;;;19.40;99.90;;;;;;5005789;28;20041;-62
2021/09/27 09:16:29;;;;;;;6.90;3.90;;;19.50;99.90;;;;;;5025462;28;20037;-63
2021/09/27 09:19:02;;;;;;;8.45;3.58;;;19.50;99.90;;;;;;5025485;28;20029;-62
2021/09/27 09:21:44;;;;;;;10.20;3.50;;;19.50;99.90;;;;;;5026314;28;20575;-61
2021/09/27 09:24:15;;;;;;;8.23;3.50;;;19.40;99.90;;;;;;5022893;28;20041;-62
2021/09/27 09:26:49;;;;;;;9.55;3.83;;;19.30;99.90;;;;;;5026848;28;20025;-61
2021/09/27 09:29:24;;;;;;;9.98;3.72;;;19.40;99.90;;;;;;5024531;28;20029;-61
2021/09/27 09:31:55;;;;;;;4.43;2.72;;;19.40;99.90;;;;;;5025147;28;20037;-62
2021/09/27 09:34:21;;;;;;;6.78;3.28;;;19.30;99.90;;;;;;5025243;28;20037;-61
2021/09/27 09:36:49;;;;;;;8.57;3.15;;;19.30;99.90;;;;;;5025822;28;21485;-62
2021/09/27 09:39:30;;;;;;;9.00;3.05;;;19.20;99.90;;;;;;5024552;28;20035;-61
2021/09/27 09:42:20;;;;;;;6.63;2.72;;;19.20;99.90;;;;;;5026299;28;20033;-61
2021/09/27 09:44:49;;;;;;;4.95;2.65;;;19.20;99.90;;;;;;5013996;28;20030;-62
2021/09/27 09:47:30;;;;;;;7.10;2.80;;;19.10;99.90;;;;;;5026160;28;20038;-62
2021/09/27 09:50:25;;;;;;;4.80;2.30;;;19.10;99.90;;;;;;5024918;28;20037;-61
2021/09/27 09:52:57;;;;;;;7.30;2.67;;;19.10;99.90;;;;;;5025094;28;20034;-62
2021/09/27 09:55:33;;;;;;;7.22;2.33;;;19.00;99.90;;;;;;5025635;28;20041;-61
2021/09/27 09:58:36;;;;;;;5.22;2.72;;;19.10;99.90;;;;;;5024924;28;20029;-62
2021/09/27 10:01:23;;;;;;;5.30;2.50;;;19.10;99.90;;;;;;5025002;28;20126;-62
2021/09/27 10:04:09;;;;;;;4.72;2.00;;;19.20;99.90;;;;;;5026257;28;21629;-62
2021/09/27 10:06:47;;;;;;;5.25;2.60;;;19.20;99.90;;;;;;5023887;28;20040;-61
2021/09/27 10:09:51;;;;;;;5.82;2.38;;;19.30;99.90;;;;;;5023750;28;20105;-60
2021/09/27 10:12:36;;;;;;;6.70;2.03;;;19.50;99.90;;;;;;5026113;28;20092;-62
2021/09/27 10:15:03;;;;;;;3.65;2.15;;;19.60;99.90;;;;;;5028298;28;20030;-62
2021/09/27 10:17:34;;;;;;;7.20;2.67;;;19.70;99.90;;;;;;5028986;28;20374;-61
2021/09/27 10:20:06;;;;;;;8.38;2.25;;;19.70;99.90;;;;;;5025943;28;20575;-62
2021/09/27 10:22:37;;;;;;;2.58;1.63;;;19.90;99.90;;;;;;5028727;28;20041;-62
2021/09/27 10:25:25;;;;;;;3.65;1.58;;;19.90;99.90;;;;;;5026625;28;20076;-61
2021/09/27 10:27:51;;;;;;;4.13;1.98;;;20.00;99.90;;;;;;5028805;28;20133;-61
2021/09/27 10:30:29;;;;;;;4.15;1.80;;;20.00;99.90;;;;;;5027410;28;20065;-61
2021/09/27 10:33:14;;;;;;;6.70;1.95;;;19.90;99.90;;;;;;5027081;28;20175;-62
2021/09/27 10:35:53;;;;;;;4.63;1.73;;;20.00;99.90;;;;;;5025087;28;20030;-61
2021/09/27 10:38:29;;;;;;;2.87;1.60;;;20.00;99.90;;;;;;5026558;28;20128;-61
2021/09/27 10:41:03;;;;;;;2.20;1.55;;;20.00;99.90;;;;;;5028241;28;20054;-60
2021/09/27 10:43:29;;;;;;;3.13;1.88;;;20.00;99.90;;;;;;5031144;28;20041;-61
2021/09/27 10:45:58;;;;;;;2.80;1.80;;;20.00;99.90;;;;;;5027120;28;20036;-62
2021/09/27 10:48:28;;;;;;;5.82;1.92;;;20.10;99.90;;;;;;5028145;28;20037;-61
2021/09/27 10:51:12;;;;;;;5.30;1.52;;;20.00;99.90;;;;;;5027859;28;20040;-62
2021/09/27 10:53:51;;;;;;;4.65;2.22;;;20.00;99.90;;;;;;5029204;28;20401;-61
2021/09/27 10:56:40;;;;;;;2.58;1.50;;;20.00;99.90;;;;;;5026921;28;20052;-64
2021/09/27 10:59:13;;;;;;;3.55;1.50;;;19.90;99.90;;;;;;5027465;28;20163;-62
2021/09/27 11:01:53;;;;;;;4.93;1.38;;;19.90;99.90;;;;;;5028340;28;20398;-61
2021/09/27 11:04:32;;;;;;;3.80;1.48;;;19.90;99.90;;;;;;5028192;28;20038;-62
2021/09/27 11:07:26;;;;;;;5.28;2.10;;;19.70;99.90;;;;;;5028518;28;20032;-61
2021/09/27 11:09:54;;;;;;;2.83;1.40;;;19.70;99.90;;;;;;5027120;28;20034;-61
2021/09/27 11:12:25;;;;;;;5.57;1.58;;;19.70;99.90;;;;;;5030559;28;20025;-61
2021/09/27 11:15:06;;;;;;;3.30;1.40;;;19.80;99.90;;;;;;5027819;28;20038;-62
2021/09/27 11:17:47;;;;;;;13.50;1.70;;;20.00;99.90;;;;;;5025099;28;20102;-61
2021/09/27 11:20:16;;;;;;;3.22;1.48;;;20.00;99.90;;;;;;5026606;28;20400;-60
2021/09/27 11:23:20;;;;;;;4.85;1.65;;;20.10;99.90;;;;;;5030196;28;20059;-61
2021/09/27 11:25:49;;;;;;;3.97;1.50;;;20.20;99.90;;;;;;5026616;28;20029;-61
2021/09/27 11:28:25;;;;;;;3.20;1.60;;;20.30;99.90;;;;;;5031186;28;20132;-61
2021/09/27 11:31:18;;;;;;;6.60;1.45;;;20.30;99.90;;;;;;5026702;28;20048;-61
2021/09/27 11:33:46;;;;;;;2.40;1.08;;;20.50;99.90;;;;;;5028596;28;20034;-61
2021/09/27 11:36:14;;;;;;;4.47;1.83;;;20.50;99.90;;;;;;5027367;28;20120;-61
2021/09/27 11:38:47;;;;;;;3.22;1.27;;;20.60;99.90;;;;;;5026265;28;20431;-62
2021/09/27 11:41:13;;;;;;;3.28;1.00;;;20.60;99.90;;;;;;5026558;28;20394;-61
2021/09/27 11:44:06;;;;;;;3.92;1.15;;;20.70;99.90;;;;;;5029173;28;20106;-62
2021/09/27 11:46:40;;;;;;;2.05;1.30;;;20.70;99.90;;;;;;5025794;28;20132;-61
2021/09/27 11:49:24;;;;;;;5.93;1.38;;;20.70;99.90;;;;;;5026466;28;20029;-61
2021/09/27 11:52:29;;;;;;;5.82;1.40;;;20.70;99.90;;;;;;5027954;28;20052;-61
2021/09/27 11:55:08;;;;;;;1.92;1.02;;;20.90;99.90;;;;;;5024738;28;20171;-61
2021/09/27 11:57:36;;;;;;;2.10;1.10;;;20.90;99.90;;;;;;5031318;28;20090;-61
2021/09/27 12:00:04;;;;;;;2.30;0.75;;;21.00;99.90;;;;;;5025922;28;20604;-61
2021/09/27 12:02:40;;;;;;;5.15;0.80;;;21.00;99.90;;;;;;5026756;28;20045;-61
2021/09/27 12:05:36;;;;;;;2.17;0.75;;;21.00;99.90;;;;;;5024813;28;20112;-62
2021/09/27 12:08:07;;;;;;;5.05;0.80;;;21.00;99.90;;;;;;5025483;28;20448;-61
2021/09/27 12:10:40;;;;;;;;;;;21.00;99.90;;;;;;5026843;28;20029;-62
2021/09/27 12:13:18;;;;;;;3.40;0.80;;;20.90;99.90;;;;;;5025909;28;20047;-61
2021/09/27 12:15:46;;;;;;;4.00;0.80;;;21.00;99.90;;;;;;5026018;28;20086;-64
2021/09/27 12:18:36;;;;;;;4.63;1.08;;;21.10;99.90;;;;;;5028379;28;20033;-62
2021/09/27 12:21:05;;;;;;;4.27;0.87;;;21.10;99.90;;;;;;5025058;28;20204;-61
2021/09/27 12:23:40;;;;;;;2.40;0.70;;;21.00;99.90;;;;;;5025249;28;20092;-61
2021/09/27 12:26:05;;;;;;;2.92;0.70;;;21.00;99.90;;;;;;5026972;28;20110;-62
2021/09/27 12:28:31;;;;;;;6.18;0.80;;;20.80;99.90;;;;;;5026433;28;20513;-61
2021/09/27 12:31:02;;;;;;;3.10;0.82;;;20.70;99.90;;;;;;5025392;28;20052;-62
2021/09/27 12:33:28;;;;;;;5.15;1.00;;;20.50;99.90;;;;;;5025806;28;20358;-62
2021/09/27 12:36:07;;;;;;;1.35;0.90;;;20.20;99.90;;;;;;5026009;28;20117;-63
2021/09/27 12:38:34;;;;;;;4.50;0.90;;;19.90;99.90;;;;;;5025552;28;20043;-62
2021/09/27 12:41:01;;;;;;;2.45;1.10;;;19.70;99.90;;;;;;5024013;28;20045;-61
2021/09/27 12:43:31;;;;;;;5.35;1.30;;;19.60;99.90;;;;;;5025103;28;20049;-63
2021/09/27 12:46:21;;;;;;;1.95;0.85;;;19.30;99.90;;;;;;5024644;28;20481;-62
2021/09/27 12:48:53;;;;;;;;;;;19.20;99.90;;;;;;5024909;28;20034;-62
2021/09/27 12:51:36;;;;;;;3.53;1.23;;;19.10;99.90;;;;;;5022743;28;19921;-62
2021/09/27 12:54:04;;;;;;;5.10;1.30;;;19.00;99.90;;;;;;5025425;28;20095;-62
2021/09/27 12:56:32;;;;;;;2.45;1.20;;;18.90;99.90;;;;;;5027857;28;20044;-61
2021/09/27 12:59:05;;;;;;;1.55;0.95;;;18.90;99.90;;;;;;5026855;28;20039;-62
2021/09/27 13:01:34;;;;;;;5.55;1.35;;;18.80;99.90;;;;;;5025591;28;20038;-61
2021/09/27 13:04:09;;;;;;;3.08;1.20;;;18.90;99.90;;;;;;5026452;28;20034;-62
2021/09/27 13:06:45;;;;;;;5.80;1.25;;;18.80;99.90;;;;;;5024480;28;20034;-61
2021/09/27 13:09:21;;;;;;;2.28;1.17;;;18.80;99.90;;;;;;5024645;28;20044;-63
2021/09/27 13:11:51;;;;;;;2.67;1.55;;;18.80;99.90;;;;;;5022631;28;20041;-61
2021/09/27 13:14:29;;;;;;;5.60;1.40;;;18.80;99.90;;;;;;5024556;28;20079;-62
2021/09/27 13:17:14;;;;;;;2.42;1.23;;;18.70;99.90;;;;;;5025436;28;20026;-63
2021/09/27 13:19:43;;;;;;;1.98;1.10;;;18.60;99.90;;;;;;5024425;28;20038;-63
2021/09/27 13:22:29;;;;;;;7.43;2.28;;;18.40;99.90;;;;;;5025345;28;20645;-62
2021/09/27 13:25:17;;;;;;;3.00;1.83;;;18.30;99.90;;;;;;5025688;28;20582;-61
2021/09/27 13:27:52;;;;;;;4.70;2.00;;;18.10;99.90;;;;;;5025911;28;20454;-61
2021/09/27 13:30:23;;;;;;;9.10;2.33;;;17.90;99.90;;;;;;5022407;28;20064;-61
2021/09/27 13:33:29;;;;;;;4.03;1.90;;;17.90;99.90;;;;;;5023915;28;20034;-62
2021/09/27 13:36:05;;;;;;;2.80;1.75;;;17.70;99.90;;;;;;5022876;28;20037;-62